Time;durP1;ratioP1;P1;durP2;ratioP2;P2;SDS_P1;SDS_P2;PMS_P1;PMS_P2;Temp;Humidity;BMP_temperature;BMP_pressure;BME280_temperature;BME280_humidity;BME280_pressure;Samples;Min_cycle;Max_cycle;Signal;HPM_P1;HPM_P2
2023/06/30 00:02:15;;;;;;;12.32;6.50;;;;;;;15.90;100.00;98409.41;5138950;27;20078;-58
2023/06/30 00:04:41;;;;;;;10.35;6.85;;;;;;;15.94;100.00;98385.25;5139219;28;20371;-56
2023/06/30 00:07:08;;;;;;;9.57;6.15;;;;;;;15.94;100.00;98390.78;5138739;27;20047;-55
2023/06/30 00:09:34;;;;;;;8.85;6.35;;;;;;;15.90;100.00;98395.59;5139050;28;20377;-58
2023/06/30 00:12:00;;;;;;;11.73;6.88;;;;;;;15.97;100.00;98394.69;5139087;27;20061;-58
2023/06/30 00:14:27;;;;;;;10.55;6.85;;;;;;;15.88;100.00;98394.44;5138721;28;20442;-54
2023/06/30 00:16:56;;;;;;;14.00;6.60;;;;;;;15.93;100.00;98389.22;5139084;27;20328;-58
2023/06/30 00:19:23;;;;;;;7.72;6.28;;;;;;;15.81;100.00;98372.44;5138750;28;20051;-54
2023/06/30 00:21:52;;;;;;;7.53;6.28;;;;;;;15.80;100.00;98371.66;5139019;28;20043;-59
2023/06/30 00:24:19;;;;;;;11.70;6.43;;;;;;;15.85;100.00;98364.88;5138619;27;20046;-52
2023/06/30 00:26:45;;;;;;;8.98;6.32;;;;;;;15.81;100.00;98377.97;5138858;28;20141;-56
2023/06/30 00:29:11;;;;;;;8.60;6.70;;;;;;;15.77;100.00;98378.81;5138557;28;20145;-58
2023/06/30 00:31:37;;;;;;;9.95;7.43;;;;;;;15.72;100.00;98370.97;5138853;28;20142;-57
2023/06/30 00:34:03;;;;;;;11.25;7.10;;;;;;;15.72;100.00;98367.44;5138315;28;20051;-58
2023/06/30 00:36:29;;;;;;;10.45;7.32;;;;;;;15.72;100.00;98359.94;5138583;28;20055;-59
2023/06/30 00:38:55;;;;;;;12.35;7.60;;;;;;;15.65;100.00;98365.53;5138602;28;20047;-59
2023/06/30 00:41:21;;;;;;;11.50;7.82;;;;;;;15.77;100.00;98364.22;5138293;28;20055;-58
2023/06/30 00:43:47;;;;;;;10.65;6.88;;;;;;;15.79;100.00;98374.84;5138596;28;20145;-54
2023/06/30 00:46:15;;;;;;;9.30;6.43;;;;;;;15.61;100.00;98375.09;5138385;28;20050;-57
2023/06/30 00:48:43;;;;;;;13.98;7.40;;;;;;;15.66;100.00;98352.50;5138437;28;20422;-59
2023/06/30 00:51:09;;;;;;;12.27;7.45;;;;;;;15.76;100.00;98354.34;5138191;28;20099;-56
2023/06/30 00:53:35;;;;;;;11.15;7.38;;;;;;;15.63;100.00;98365.19;5138144;28;20133;-55
2023/06/30 00:56:01;;;;;;;10.00;7.75;;;;;;;15.68;100.00;98356.44;5138138;27;20150;-58
2023/06/30 00:58:27;;;;;;;19.15;7.65;;;;;;;15.64;100.00;98350.16;5138442;28;20054;-58
2023/06/30 01:00:59;;;;;;;17.77;8.25;;;;;;;15.72;100.00;98348.09;5138025;28;20086;-59
2023/06/30 01:03:32;;;;;;;9.40;7.03;;;;;;;15.45;100.00;98350.84;5138379;28;20138;-60
2023/06/30 01:06:06;;;;;;;29.80;10.18;;;;;;;15.72;100.00;98354.41;5138139;28;20332;-55
2023/06/30 01:08:38;;;;;;;12.07;7.30;;;;;;;15.70;100.00;98361.56;5137947;27;20134;-54
2023/06/30 01:11:04;;;;;;;9.30;6.88;;;;;;;15.61;100.00;98351.00;5138076;28;20055;-55
2023/06/30 01:13:32;;;;;;;10.63;7.13;;;;;;;15.54;100.00;98349.13;5137969;28;20080;-56
2023/06/30 01:15:59;;;;;;;11.98;7.45;;;;;;;15.61;100.00;98356.53;5138222;27;20211;-58
2023/06/30 01:18:26;;;;;;;9.88;7.20;;;;;;;15.61;100.00;98358.50;5137827;27;20057;-59
2023/06/30 01:20:52;;;;;;;11.35;7.65;;;;;;;15.52;100.00;98359.81;5138138;27;20047;-56
2023/06/30 01:23:29;;;;;;;8.23;6.88;;;;;;;15.61;100.00;98364.03;5137663;28;20116;-53
2023/06/30 01:25:55;;;;;;;11.73;7.20;;;;;;;15.63;100.00;98356.91;5138048;28;20077;-51
2023/06/30 01:28:21;;;;;;;10.43;7.15;;;;;;;15.70;100.00;98375.38;5137589;28;20047;-59
2023/06/30 01:30:47;;;;;;;11.27;7.25;;;;;;;15.76;100.00;98379.22;5137754;27;20200;-53
2023/06/30 01:33:13;;;;;;;14.77;7.75;;;;;;;15.62;100.00;98382.16;5137775;28;20059;-51
2023/06/30 01:35:39;;;;;;;14.38;8.07;;;;;;;15.62;100.00;98371.13;5137362;28;20424;-55
2023/06/30 01:38:06;;;;;;;11.98;6.88;;;;;;;15.59;100.00;98369.19;5137798;27;20093;-55
2023/06/30 01:40:33;;;;;;;11.38;7.07;;;;;;;15.52;100.00;98362.56;5137605;28;20051;-55
2023/06/30 01:42:58;;;;;;;8.68;7.28;;;;;;;15.63;100.00;98386.50;5137945;28;20142;-58
2023/06/30 01:45:26;;;;;;;8.98;7.50;;;;;;;15.69;100.00;98374.59;5137258;28;20443;-55
2023/06/30 01:47:53;;;;;;;9.63;7.63;;;;;;;15.65;100.00;98384.09;5137751;28;20133;-55
2023/06/30 01:50:20;;;;;;;10.23;7.32;;;;;;;15.65;100.00;98395.16;5137322;28;20050;-55
2023/06/30 01:52:46;;;;;;;15.02;7.18;;;;;;;15.66;100.00;98382.91;5137774;28;20043;-59
2023/06/30 01:55:12;;;;;;;8.45;6.82;;;;;;;15.80;100.00;98396.53;5137078;27;20058;-53
2023/06/30 01:57:38;;;;;;;14.07;11.43;;;;;;;15.79;100.00;98402.47;5137384;28;20051;-52
2023/06/30 02:00:06;;;;;;;9.13;7.07;;;;;;;15.68;100.00;98400.66;5137387;28;20051;-52
2023/06/30 02:02:32;;;;;;;12.77;7.47;;;;;;;15.87;100.00;98395.66;5137117;28;20134;-59
2023/06/30 02:04:58;;;;;;;11.70;7.00;;;;;;;15.94;100.00;98409.34;5137139;28;20047;-52
2023/06/30 02:07:24;;;;;;;10.18;7.45;;;;;;;15.88;100.00;98420.09;5137100;28;20065;-55
2023/06/30 02:09:50;;;;;;;11.30;7.13;;;;;;;15.97;100.00;98436.94;5137465;28;20150;-59
2023/06/30 02:12:16;;;;;;;12.10;7.28;;;;;;;15.91;100.00;98430.31;5136961;28;20047;-54
2023/06/30 02:14:43;;;;;;;10.82;6.63;;;;;;;15.95;100.00;98433.78;5137401;27;20051;-55
2023/06/30 02:17:10;;;;;;;12.43;8.00;;;;;;;16.04;100.00;98444.34;5136933;28;20130;-55
2023/06/30 02:19:36;;;;;;;9.88;6.95;;;;;;;15.98;100.00;98460.59;5137486;27;20046;-58
2023/06/30 02:22:02;;;;;;;12.55;7.28;;;;;;;16.10;100.00;98464.00;5140535;28;20057;-55
2023/06/30 02:24:27;;;;;;;10.32;7.53;;;;;;;16.20;100.00;98479.66;5141009;28;20047;-52
2023/06/30 02:26:54;;;;;;;7.45;6.22;;;;;;;16.17;100.00;98502.59;5140612;28;20082;-53
2023/06/30 02:29:20;;;;;;;11.68;6.57;;;;;;;16.62;100.00;98513.31;5140413;28;20050;-53
2023/06/30 02:31:47;;;;;;;14.55;7.07;;;;;;;16.46;100.00;98525.84;5140785;28;20140;-58
2023/06/30 02:34:13;;;;;;;10.77;6.60;;;;;;;16.64;100.00;98531.09;5140600;28;20138;-59
2023/06/30 02:36:39;;;;;;;15.27;6.88;;;;;;;16.93;100.00;98528.63;5140501;27;20489;-58
2023/06/30 02:39:05;;;;;;;8.07;6.80;;;;;;;17.38;100.00;98508.78;5140444;28;20074;-55
2023/06/30 02:41:31;;;;;;;7.78;6.00;;;;;;;17.37;100.00;98454.59;5140735;28;20396;-53
2023/06/30 02:43:56;;;;;;;11.90;6.72;;;;;;;17.81;100.00;98388.69;5140279;28;20134;-51
2023/06/30 02:46:22;;;;;;;9.88;8.85;;;;;;;18.10;100.00;98241.00;5140496;28;20418;-54
2023/06/30 02:48:49;;;;;;;10.20;6.60;;;;;;;18.39;100.00;98068.94;5140096;28;20079;-54
2023/06/30 02:51:15;;;;;;;11.55;6.90;;;;;;;18.39;100.00;97979.38;5140531;28;20157;-53
2023/06/30 02:53:41;;;;;;;8.82;6.22;;;;;;;18.45;100.00;97914.53;5140007;27;20138;-57
2023/06/30 02:56:07;;;;;;;10.10;6.57;;;;;;;18.88;100.00;97720.72;5140214;27;20078;-59
2023/06/30 02:58:36;;;;;;;8.00;6.35;;;;;;;18.92;100.00;97610.28;5140051;28;20294;-59
2023/06/30 03:01:02;;;;;;;13.55;6.78;;;;;;;18.73;100.00;97712.19;5140169;28;20046;-57
2023/06/30 03:03:28;;;;;;;10.23;6.47;;;;;;;19.11;100.00;97591.66;5140176;28;20133;-60
2023/06/30 03:05:54;;;;;;;9.77;7.00;;;;;;;19.21;100.00;97507.13;5139829;28;20078;-58
2023/06/30 03:08:20;;;;;;;13.43;6.80;;;;;;;18.81;100.00;97497.66;5140208;28;20047;-55
2023/06/30 03:10:48;;;;;;;14.18;6.85;;;;;;;18.53;100.00;97576.53;5139653;28;20099;-54
2023/06/30 03:13:14;;;;;;;9.80;7.25;;;;;;;18.05;100.00;97781.19;5140185;28;20360;-55
2023/06/30 03:15:40;;;;;;;16.60;6.60;;;;;;;17.95;100.00;97907.09;5139643;28;20146;-55
2023/06/30 03:18:06;;;;;;;14.90;7.45;;;;;;;17.58;100.00;98056.28;5140198;28;20059;-52
2023/06/30 03:20:32;;;;;;;8.30;6.78;;;;;;;17.60;100.00;98104.50;5139601;27;20079;-54
2023/06/30 03:23:00;;;;;;;13.32;6.47;;;;;;;17.60;100.00;98150.84;5140070;27;20138;-53
2023/06/30 03:25:26;;;;;;;9.18;6.72;;;;;;;17.47;100.00;98177.72;5139734;28;20141;-59
2023/06/30 03:27:51;;;;;;;16.95;12.35;;;;;;;17.46;100.00;98228.78;5139432;28;20516;-58
2023/06/30 03:30:17;;;;;;;9.68;6.88;;;;;;;17.40;100.00;98275.63;5139769;28;20062;-58
2023/06/30 03:32:43;;;;;;;12.75;6.60;;;;;;;17.31;100.00;98320.56;5138082;27;20053;-57
2023/06/30 03:35:09;;;;;;;11.27;7.15;;;;;;;17.37;100.00;98329.91;5139615;28;20058;-51
2023/06/30 03:37:35;;;;;;;12.88;7.30;;;;;;;18.25;100.00;98274.69;5139347;28;20076;-53
2023/06/30 03:40:05;;;;;;;7.70;6.13;;;;;;;19.22;100.00;97997.59;5139736;28;20093;-57
2023/06/30 03:42:31;;;;;;;8.93;6.63;;;;;;;19.44;100.00;97628.75;5139343;28;20051;-53
2023/06/30 03:44:57;;;;;;;9.18;6.38;;;;;;;19.37;100.00;97512.34;5139633;28;20290;-52
2023/06/30 03:47:23;;;;;;;14.88;6.43;;;;;;;19.18;100.00;97494.16;5139171;28;20411;-54
2023/06/30 03:49:48;;;;;;;9.10;8.30;;;;;;;19.21;100.00;97540.44;5139608;28;20138;-53
2023/06/30 03:52:14;;;;;;;11.25;6.15;;;;;;;19.21;100.00;97582.88;5139046;28;20047;-57
2023/06/30 03:54:40;;;;;;;10.18;5.88;;;;;;;19.07;100.00;97588.28;5139007;28;20058;-59
2023/06/30 03:57:07;;;;;;;11.93;6.15;;;;;;;18.78;100.00;97689.38;5139065;28;20069;-59
2023/06/30 03:59:33;;;;;;;13.07;7.40;;;;;;;18.95;100.00;97810.09;5139161;28;20138;-56
2023/06/30 04:01:59;;;;;;;15.75;7.40;;;;;;;19.01;100.00;97765.84;5139141;28;20047;-52
2023/06/30 04:04:25;;;;;;;11.02;7.07;;;;;;;19.57;100.00;97636.97;5139082;28;20066;-53
2023/06/30 04:06:51;;;;;;;8.52;5.95;;;;;;;20.36;100.00;97375.47;5139152;28;20372;-58
2023/06/30 04:09:17;;;;;;;15.48;7.03;;;;;;;20.88;100.00;97160.78;5138888;28;20086;-58
2023/06/30 04:11:43;;;;;;;8.48;6.13;;;;;;;21.75;100.00;97068.19;5138854;28;20074;-59
2023/06/30 04:14:09;;;;;;;13.18;6.78;;;;;;;22.04;100.00;97056.81;5138705;28;20396;-59
2023/06/30 04:16:35;;;;;;;20.75;6.80;;;;;;;22.19;100.00;97087.44;5139095;28;20065;-59
2023/06/30 04:19:01;;;;;;;8.30;6.10;;;;;;;22.27;100.00;97090.53;5138713;28;20168;-60
2023/06/30 04:21:27;;;;;;;6.35;5.68;;;;;;;22.73;100.00;97098.00;5138532;28;20133;-59
2023/06/30 04:23:53;;;;;;;7.70;6.05;;;;;;;22.44;100.00;97133.31;5138579;28;20393;-58
2023/06/30 04:26:19;;;;;;;12.25;6.30;;;;;;;23.12;100.00;97164.56;5138712;27;20138;-55
2023/06/30 04:28:45;;;;;;;10.02;5.90;;;;;;;23.15;100.00;97220.25;5138858;27;20110;-57
2023/06/30 04:31:11;;;;;;;8.25;5.53;;;;;;;22.73;100.00;97176.22;5138735;28;20073;-58
2023/06/30 04:33:37;;;;;;;8.98;6.45;;;;;;;22.58;100.00;97151.19;5138572;28;20047;-57
2023/06/30 04:36:03;;;;;;;10.73;6.15;;;;;;;22.99;100.00;97157.41;5138213;28;20058;-59
2023/06/30 04:38:30;;;;;;;8.13;5.72;;;;;;;23.40;100.00;97195.53;5138825;28;20363;-56
2023/06/30 04:40:56;;;;;;;10.90;6.43;;;;;;;23.63;100.00;97225.13;5138427;28;20043;-58
2023/06/30 04:43:22;;;;;;;9.15;5.97;;;;;;;24.11;100.00;97311.13;5138247;27;20051;-55
2023/06/30 04:45:48;;;;;;;6.63;5.70;;;;;;;24.10;100.00;97292.81;5138155;28;20310;-55
2023/06/30 04:48:14;;;;;;;8.40;6.07;;;;;;;24.15;100.00;97350.09;5138727;28;20142;-53
2023/06/30 04:50:40;;;;;;;9.13;7.38;;;;;;;24.80;100.00;97374.59;5138045;28;20138;-55
2023/06/30 04:53:06;;;;;;;10.25;6.30;;;;;;;24.67;100.00;97425.50;5138300;28;20196;-53
2023/06/30 04:55:32;;;;;;;8.02;6.63;;;;;;;24.72;100.00;97379.13;5138409;28;20111;-57
2023/06/30 04:57:58;;;;;;;9.07;6.85;;;;;;;25.00;100.00;97443.72;5137905;28;20483;-59
2023/06/30 05:00:26;;;;;;;9.55;7.15;;;;;;;25.20;100.00;97457.56;5138089;28;20082;-60
2023/06/30 05:02:52;;;;;;;11.40;6.80;;;;;;;25.17;100.00;97441.75;5138111;28;20055;-59
2023/06/30 05:05:19;;;;;;;11.15;5.50;;;;;;;24.96;100.00;97435.53;5138009;28;20456;-57
2023/06/30 05:07:45;;;;;;;8.52;5.70;;;;;;;24.88;100.00;97480.09;5137606;28;20409;-56
2023/06/30 05:10:11;;;;;;;6.82;5.55;;;;;;;25.63;100.00;97526.78;5138119;28;20043;-53
2023/06/30 05:12:37;;;;;;;9.30;7.18;;;;;;;25.32;100.00;97540.47;5137751;28;20146;-60
2023/06/30 05:15:04;;;;;;;11.57;7.53;;;;;;;25.65;100.00;97477.28;5138174;27;20145;-60
2023/06/30 05:17:30;;;;;;;7.60;6.80;;;;;;;26.20;100.00;97545.25;5137850;27;20055;-57
2023/06/30 05:19:56;;;;;;;5.60;4.95;;;;;;;26.05;100.00;97607.25;5138150;27;20106;-53
2023/06/30 05:22:23;;;;;;;9.57;5.07;;;;;;;26.32;100.00;97607.81;5137872;28;20058;-60
2023/06/30 05:24:49;;;;;;;7.55;6.82;;;;;;;26.66;100.00;97611.44;5137737;28;20065;-61
2023/06/30 05:27:15;;;;;;;6.93;6.25;;;;;;;26.45;100.00;97608.06;5137728;28;20115;-57
2023/06/30 05:29:41;;;;;;;9.15;7.05;;;;;;;26.61;100.00;97627.00;5137594;28;20051;-57
2023/06/30 05:32:08;;;;;;;9.05;6.97;;;;;;;26.68;100.00;97642.59;5137777;28;20359;-56
2023/06/30 05:34:34;;;;;;;13.15;6.90;;;;;;;26.96;100.00;97653.81;5137561;28;20051;-62
2023/06/30 05:37:00;;;;;;;11.88;6.57;;;;;;;26.47;100.00;97664.53;5137740;28;20340;-62
2023/06/30 05:39:26;;;;;;;8.15;7.30;;;;;;;27.01;100.00;97655.09;5137492;28;20043;-57
2023/06/30 05:41:52;;;;;;;7.30;6.60;;;;;;;26.49;100.00;97664.81;5137646;28;20058;-58
2023/06/30 05:44:18;;;;;;;7.93;6.93;;;;;;;26.91;100.00;97651.78;5137272;28;20067;-54
2023/06/30 05:46:44;;;;;;;10.52;6.70;;;;;;;27.43;100.00;97673.72;5137594;28;20051;-53
2023/06/30 05:49:10;;;;;;;9.27;6.38;;;;;;;27.94;100.00;97699.66;5137104;28;20053;-53
2023/06/30 05:51:36;;;;;;;11.65;7.10;;;;;;;28.10;100.00;97709.31;5137377;28;20138;-52
2023/06/30 05:54:02;;;;;;;6.63;6.03;;;;;;;28.25;100.00;97720.25;5136925;27;20111;-60
2023/06/30 05:56:29;;;;;;;8.75;6.43;;;;;;;28.06;100.00;97726.50;5136501;28;20103;-58
2023/06/30 05:58:56;;;;;;;8.43;6.55;;;;;;;28.45;100.00;97736.03;5137102;28;20350;-56
2023/06/30 06:01:22;;;;;;;7.47;6.63;;;;;;;27.98;100.00;97733.94;5137241;28;20051;-58
2023/06/30 06:03:48;;;;;;;10.43;6.53;;;;;;;27.41;100.00;97713.59;5137293;27;20192;-55
2023/06/30 06:06:14;;;;;;;7.18;6.57;;;;;;;28.32;100.00;97730.94;5136815;28;20054;-56
2023/06/30 06:08:41;;;;;;;7.10;6.40;;;;;;;28.48;100.00;97720.91;5137225;28;20425;-60
2023/06/30 06:11:07;;;;;;;15.70;8.82;;;;;;;28.97;100.00;97735.16;5137029;27;20069;-59
2023/06/30 06:13:34;;;;;;;7.85;6.07;;;;;;;29.29;100.00;97732.59;5137480;27;20408;-58
2023/06/30 06:16:01;;;;;;;6.93;6.32;;;;;;;29.36;100.00;97768.72;5136808;28;20139;-53
2023/06/30 06:18:27;;;;;;;9.38;6.25;;;;;;;29.48;100.00;97787.06;5137291;27;20051;-55
2023/06/30 06:20:53;;;;;;;7.22;6.53;;;;;;;28.97;100.00;97775.44;5136761;28;20393;-52
2023/06/30 06:23:19;;;;;;;8.35;6.50;;;;;;;28.92;100.00;97773.41;5136587;28;20149;-52
2023/06/30 06:25:45;;;;;;;7.70;6.57;;;;;;;29.12;100.00;97786.34;5137044;28;20150;-57
2023/06/30 06:28:11;;;;;;;7.80;6.30;;;;;;;28.42;100.00;97779.34;5136900;28;20130;-59
2023/06/30 06:30:37;;;;;;;7.63;6.32;;;;;;;28.83;100.00;97768.09;5136999;28;20047;-59
2023/06/30 06:33:03;;;;;;;8.38;6.25;;;;;;;28.14;100.00;97766.16;5136606;28;20305;-59
2023/06/30 06:35:29;;;;;;;7.90;6.10;;;;;;;28.66;100.00;97745.66;5136933;27;20051;-59
2023/06/30 06:37:55;;;;;;;8.95;6.45;;;;;;;28.98;100.00;97762.84;5136618;27;20151;-59
2023/06/30 06:40:21;;;;;;;11.68;7.03;;;;;;;28.69;100.00;97753.06;5136807;28;20095;-55
2023/06/30 06:42:47;;;;;;;6.82;6.22;;;;;;;28.16;100.00;97763.59;5136363;28;20400;-52
2023/06/30 06:45:13;;;;;;;8.05;7.07;;;;;;;29.29;100.00;97774.94;5136885;28;20054;-53
2023/06/30 06:48:16;;;;;;;10.38;5.97;;;;;;;29.34;100.00;97805.16;5136125;28;20051;-52
2023/06/30 06:50:43;;;;;;;12.87;6.70;;;;;;;29.17;100.00;97796.09;5136351;28;20043;-55
2023/06/30 06:53:09;;;;;;;7.75;6.55;;;;;;;29.00;100.00;97780.06;5136727;28;20051;-57
2023/06/30 06:55:36;;;;;;;8.90;5.65;;;;;;;28.83;100.00;97799.88;5136326;28;20440;-62
2023/06/30 06:58:01;;;;;;;6.07;5.60;;;;;;;28.91;100.00;97808.53;5136582;28;20150;-60
2023/06/30 07:00:27;;;;;;;6.50;5.90;;;;;;;29.61;100.00;97794.94;5136195;28;20134;-62
2023/06/30 07:02:53;;;;;;;8.07;6.40;;;;;;;29.85;98.01;97810.38;5136626;27;20322;-61
2023/06/30 07:05:19;;;;;;;7.85;7.03;;;;;;;30.15;100.00;97798.97;5135975;27;20085;-59
2023/06/30 07:07:46;;;;;;;8.60;6.15;;;;;;;30.35;100.00;97781.53;5139271;28;20133;-52
2023/06/30 07:10:12;;;;;;;11.60;6.30;;;;;;;30.55;100.00;97802.09;5139339;28;20141;-54
2023/06/30 07:12:38;;;;;;;11.10;6.88;;;;;;;31.32;100.00;97790.97;5139700;28;20047;-52
2023/06/30 07:15:05;;;;;;;6.65;6.05;;;;;;;31.05;100.00;97797.81;5139786;27;20089;-56
2023/06/30 07:17:31;;;;;;;10.32;6.15;;;;;;;31.22;98.40;97812.44;5139438;28;20195;-55
2023/06/30 07:19:57;;;;;;;7.50;6.60;;;;;;;30.60;100.00;97806.94;5139567;28;20059;-51
2023/06/30 07:22:23;;;;;;;7.45;6.60;;;;;;;30.52;100.00;97806.75;5139169;28;20134;-56
2023/06/30 07:24:49;;;;;;;7.88;6.10;;;;;;;30.62;91.50;97836.22;5139403;28;20047;-54
2023/06/30 07:27:15;;;;;;;10.65;7.30;;;;;;;30.90;100.00;97807.56;5138952;28;20221;-53
2023/06/30 07:29:41;;;;;;;7.75;6.55;;;;;;;29.94;100.00;97816.44;5139438;28;20047;-56
2023/06/30 07:32:08;;;;;;;8.25;5.82;;;;;;;30.60;92.41;97815.41;5138830;28;20134;-59
2023/06/30 07:34:33;;;;;;;7.40;6.25;;;;;;;30.88;100.00;97804.47;5139129;28;20138;-59
2023/06/30 07:36:59;;;;;;;6.97;6.28;;;;;;;30.77;100.00;97801.81;5139000;28;20078;-63
2023/06/30 07:39:25;;;;;;;9.45;6.65;;;;;;;31.24;99.55;97795.69;5138883;28;20108;-61
2023/06/30 07:41:52;;;;;;;7.80;5.85;;;;;;;30.78;99.24;97811.06;5139386;28;20054;-57
2023/06/30 07:44:19;;;;;;;8.68;6.75;;;;;;;31.41;95.78;97813.19;5138982;27;20043;-61
2023/06/30 07:46:45;;;;;;;6.32;5.72;;;;;;;31.02;95.87;97816.63;5137170;28;20153;-60
2023/06/30 07:49:11;;;;;;;9.43;6.30;;;;;;;31.50;98.79;97809.19;5138952;28;20074;-52
2023/06/30 07:51:37;;;;;;;9.73;6.15;;;;;;;31.44;94.75;97817.03;5138654;28;20430;-56
2023/06/30 07:54:03;;;;;;;7.60;6.63;;;;;;;31.02;92.29;97821.53;5138739;28;20047;-56
2023/06/30 07:56:29;;;;;;;9.85;5.90;;;;;;;31.64;96.46;97807.16;5139001;27;20050;-60
2023/06/30 07:58:56;;;;;;;9.00;6.65;;;;;;;31.64;96.04;97818.47;5138754;27;20047;-61
2023/06/30 08:01:22;;;;;;;6.68;6.00;;;;;;;31.80;92.28;97828.00;5138999;27;20361;-62
2023/06/30 08:03:48;;;;;;;8.23;6.22;;;;;;;31.60;92.85;97813.13;5138646;28;20100;-59
2023/06/30 08:06:14;;;;;;;6.28;5.68;;;;;;;31.50;92.54;97820.53;5138702;28;20070;-60
2023/06/30 08:08:40;;;;;;;8.75;6.40;;;;;;;31.27;89.16;97816.50;5138512;27;20074;-57
2023/06/30 08:11:06;;;;;;;9.32;5.75;;;;;;;31.63;91.79;97816.97;5138896;27;20412;-58
2023/06/30 08:13:32;;;;;;;6.40;5.80;;;;;;;31.55;91.54;97813.97;5138749;28;20075;-59
2023/06/30 08:15:59;;;;;;;8.95;5.78;;;;;;;31.67;94.19;97823.06;5138473;28;20078;-62
2023/06/30 08:18:27;;;;;;;7.90;6.35;;;;;;;30.92;95.88;97821.94;5137711;27;20468;-63
2023/06/30 08:20:53;;;;;;;9.13;5.82;;;;;;;31.02;92.54;97827.19;5138575;28;20053;-60
2023/06/30 08:23:19;;;;;;;7.45;6.10;;;;;;;31.33;88.96;97846.28;5138471;28;20047;-57
2023/06/30 08:25:45;;;;;;;12.25;5.85;;;;;;;30.83;91.74;97827.97;5138368;28;20103;-55
2023/06/30 08:28:11;;;;;;;10.40;6.53;;;;;;;31.67;89.74;97845.72;5138611;28;20475;-59
2023/06/30 08:30:37;;;;;;;6.97;6.25;;;;;;;31.56;87.53;97834.59;5138261;28;20058;-56
2023/06/30 08:33:04;;;;;;;6.43;5.82;;;;;;;31.78;84.81;97851.19;5138715;27;20068;-61
2023/06/30 08:35:30;;;;;;;8.48;6.10;;;;;;;31.88;86.69;97840.97;5138056;27;20057;-58
2023/06/30 08:37:55;;;;;;;6.53;5.63;;;;;;;31.45;83.19;97846.09;5138714;27;20043;-63
2023/06/30 08:40:25;;;;;;;6.68;6.00;;;;;;;31.01;93.02;97834.16;5138345;28;20074;-61
2023/06/30 08:42:53;;;;;;;6.35;5.80;;;;;;;30.86;89.29;97835.41;5138247;28;20051;-61
2023/06/30 08:45:23;;;;;;;6.65;5.82;;;;;;;30.73;83.80;97835.28;5138306;28;20438;-57
2023/06/30 08:47:49;;;;;;;9.98;5.68;;;;;;;31.67;84.15;97834.38;5138185;27;20051;-55
2023/06/30 08:50:16;;;;;;;12.93;5.95;;;;;;;31.12;86.46;97834.75;5138342;28;20150;-59
2023/06/30 08:52:43;;;;;;;6.93;6.05;;;;;;;30.66;89.99;97833.84;5138064;27;20046;-58
2023/06/30 08:55:10;;;;;;;7.55;6.65;;;;;;;30.92;88.24;97846.63;5138341;27;20112;-60
2023/06/30 08:57:37;;;;;;;6.63;6.03;;;;;;;30.43;82.99;97855.97;5137903;28;20047;-61
2023/06/30 09:00:05;;;;;;;7.25;5.75;;;;;;;30.85;82.16;97835.91;5138499;27;20369;-57
2023/06/30 09:02:31;;;;;;;9.75;6.28;;;;;;;30.42;80.64;97843.16;5137929;27;20133;-58
2023/06/30 09:04:58;;;;;;;6.03;5.38;;;;;;;29.90;85.97;97834.97;5138121;27;20428;-63
2023/06/30 09:07:28;;;;;;;6.68;5.43;;;;;;;29.82;88.94;97837.59;5137546;28;20059;-60
2023/06/30 09:09:56;;;;;;;6.78;5.50;;;;;;;29.30;96.10;97822.41;5137768;27;20130;-60
2023/06/30 09:12:24;;;;;;;6.53;5.20;;;;;;;29.12;97.14;97817.41;5138124;27;20049;-57
2023/06/30 09:14:51;;;;;;;6.38;5.47;;;;;;;28.22;98.14;97817.06;5137608;28;20142;-61
2023/06/30 09:17:18;;;;;;;8.43;5.35;;;;;;;27.83;99.29;97804.66;5137975;28;20133;-56
2023/06/30 09:19:44;;;;;;;8.70;6.03;;;;;;;28.38;100.00;97794.47;5137726;28;20218;-55
2023/06/30 09:22:11;;;;;;;5.75;5.13;;;;;;;28.15;100.00;97801.47;5137981;28;20043;-57
2023/06/30 09:24:38;;;;;;;6.13;5.50;;;;;;;27.89;100.00;97811.03;5137455;28;20082;-56
2023/06/30 09:27:04;;;;;;;6.88;5.35;;;;;;;27.35;100.00;97791.63;5137844;27;20550;-53
2023/06/30 09:29:33;;;;;;;7.65;5.38;;;;;;;27.77;100.00;97806.72;5137381;27;20047;-56
2023/06/30 09:32:01;;;;;;;6.00;5.45;;;;;;;27.34;100.00;97786.53;5137670;27;20054;-61
2023/06/30 09:34:27;;;;;;;5.88;5.38;;;;;;;27.08;100.00;97787.53;5137502;28;20051;-55
2023/06/30 09:36:54;;;;;;;9.02;6.93;;;;;;;27.53;100.00;97781.91;5137246;28;20058;-56
2023/06/30 09:39:20;;;;;;;7.00;5.95;;;;;;;27.89;100.00;97788.53;5137453;28;20328;-57
2023/06/30 09:41:49;;;;;;;6.57;6.07;;;;;;;28.76;99.73;97806.09;5137282;28;20051;-55
2023/06/30 09:44:17;;;;;;;7.45;6.32;;;;;;;29.73;94.10;97807.66;5137354;28;20399;-56
2023/06/30 09:46:46;;;;;;;5.85;5.30;;;;;;;28.54;91.50;97823.88;5137005;27;20128;-58
2023/06/30 09:49:23;;;;;;;8.55;5.70;;;;;;;28.63;93.71;97817.19;5137313;27;20047;-54
2023/06/30 09:51:48;;;;;;;6.97;5.20;;;;;;;29.13;90.00;97816.13;5136952;28;20066;-55
2023/06/30 09:54:16;;;;;;;6.05;5.45;;;;;;;29.85;84.03;97816.78;5137163;27;20051;-57
2023/06/30 09:56:42;;;;;;;6.30;5.30;;;;;;;29.27;89.13;97817.03;5136675;27;20130;-58
2023/06/30 09:59:09;;;;;;;6.53;5.45;;;;;;;28.14;100.00;97785.88;5137234;28;20377;-60
2023/06/30 10:01:35;;;;;;;6.28;5.72;;;;;;;27.57;100.00;97785.22;5137150;27;20057;-61
2023/06/30 10:04:01;;;;;;;7.55;5.68;;;;;;;27.84;100.00;97780.84;5136933;28;20051;-59
2023/06/30 10:06:28;;;;;;;7.53;6.57;;;;;;;28.72;100.00;97788.66;5137034;28;20115;-60
2023/06/30 10:08:56;;;;;;;13.27;5.40;;;;;;;29.26;93.85;97785.22;5136698;28;20456;-52
2023/06/30 10:11:23;;;;;;;7.13;5.70;;;;;;;29.23;94.46;97794.00;5136910;28;20134;-55
2023/06/30 10:13:50;;;;;;;5.45;5.05;;;;;;;29.83;89.57;97788.31;5136758;27;20051;-58
2023/06/30 10:16:19;;;;;;;6.35;4.97;;;;;;;28.43;90.15;97789.38;5137172;28;20062;-51
2023/06/30 10:18:47;;;;;;;7.90;6.68;;;;;;;28.17;99.93;97778.44;5136813;28;20306;-54
2023/06/30 10:21:13;;;;;;;6.95;6.25;;;;;;;28.16;100.00;97769.22;5137235;28;20047;-55
2023/06/30 10:23:42;;;;;;;10.70;5.70;;;;;;;27.75;100.00;97730.41;5136672;28;20393;-59
2023/06/30 10:26:09;;;;;;;13.68;6.05;;;;;;;26.98;100.00;97583.75;5136713;28;20058;-55
2023/06/30 10:28:36;;;;;;;10.13;6.85;;;;;;;26.06;100.00;97344.88;5136816;28;20468;-55
2023/06/30 10:31:02;;;;;;;12.80;7.03;;;;;;;25.49;100.00;97234.72;5136723;27;20055;-52
2023/06/30 10:33:29;;;;;;;6.82;6.20;;;;;;;25.10;100.00;97021.69;5137037;28;20055;-52
2023/06/30 10:35:57;;;;;;;11.90;6.72;;;;;;;25.63;100.00;96957.19;5136627;28;20065;-55
2023/06/30 10:38:24;;;;;;;8.35;7.03;;;;;;;26.16;100.00;96958.56;5136963;28;20153;-58
2023/06/30 10:40:50;;;;;;;16.23;9.13;;;;;;;26.86;100.00;97005.94;5136995;27;20143;-54
2023/06/30 10:43:17;;;;;;;8.52;6.75;;;;;;;26.77;100.00;97267.69;5140539;28;20138;-54
2023/06/30 10:46:05;;;;;;;6.82;6.07;;;;;;;26.44;100.00;97242.06;5140161;27;20416;-60
2023/06/30 10:48:32;;;;;;;6.65;4.65;;;;;;;25.81;100.00;97565.63;5140418;27;20375;-63
2023/06/30 10:50:58;;;;;;;9.50;5.65;;;;;;;25.50;100.00;97575.72;5140331;27;20132;-63
2023/06/30 10:53:26;;;;;;;7.60;5.35;;;;;;;25.19;100.00;97519.75;5140231;27;20061;-59
2023/06/30 10:55:55;;;;;;;6.10;4.70;;;;;;;25.12;100.00;97397.63;5140248;28;20051;-64
2023/06/30 10:58:22;;;;;;;13.32;6.20;;;;;;;25.02;100.00;97390.69;5140090;28;20111;-62
2023/06/30 11:01:02;;;;;;;11.10;4.60;;;;;;;24.55;100.00;97278.22;5140179;28;20104;-61
2023/06/30 11:04:07;;;;;;;14.95;5.85;;;;;;;24.59;100.00;97197.50;5139962;28;20051;-57
2023/06/30 11:06:36;;;;;;;8.68;4.75;;;;;;;24.06;100.00;97210.34;5140045;28;20051;-59
2023/06/30 11:09:03;;;;;;;11.95;6.45;;;;;;;24.40;100.00;97071.19;5140000;28;20088;-58
2023/06/30 11:11:47;;;;;;;11.85;5.78;;;;;;;24.70;100.00;97172.31;5139813;28;20047;-62
2023/06/30 11:14:13;;;;;;;6.77;5.07;;;;;;;24.77;100.00;97328.72;5139689;27;20058;-57
2023/06/30 11:17:04;;;;;;;7.65;5.53;;;;;;;25.17;100.00;97345.66;5139477;28;20551;-66
2023/06/30 11:19:29;;;;;;;6.28;5.22;;;;;;;25.52;100.00;97416.03;5139751;27;20055;-61
2023/06/30 11:22:23;;;;;;;6.63;5.43;;;;;;;25.34;100.00;97456.56;5139412;28;20047;-55
2023/06/30 11:24:50;;;;;;;10.93;4.68;;;;;;;25.20;100.00;97406.31;5129688;27;20413;-54